New Carlisle, IN

8:44 PM EDT on August 22, 2014 (GMT -0400)
Bendix Woods County Park | Change Station
CLOSE
Current Station
Personal Weather Station
Location: New Carlisle, IN
Elevation: 835 ft
Nearby Weather Stations

Elev 835 ft 41.66 °N, 86.51 °W | Updated 2 seconds ago

Overcast
Overcast
79.0 °F
Feels Like 83 °F
N
0.0
Wind Variable Wind from North
Gusts 0.0 mph

Today
High -- | Low -- °F
--% Chance of Precip.
Yesterday
High -- | Low -- °F
Precip. -- in
7:01 AM 8:35 PM
Waning Crescent, 6% visible
Pressure 29.95 in
Visibility 10.0 miles
Clouds Overcast 3800 ft
Heat Index 83 °F
Dew Point 74 °F
Humidity 85%
Rainfall 0.04 in
Snow Depth Not available.
UV 0 out of 12
Pollen 8.70 out of 12
Ozone Good
PM2.5 Moderate
Flu Activity Not available.
METAR KSBN 222354Z 27004KT 10SM OVC038 28/23 A2996 RMK AO2 SLP140 T02780228 10294 20272 53004

More Conditions Fewer Conditions

Pressure 29.95 in
Visibility 10.0 miles
Clouds Overcast 3800 ft
Heat Index 83 °F
Dew Point 74 °F
Humidity 85%
Rainfall 0.04 in
Snow Depth Not available.
UV 0 out of 12
Pollen 8.70 out of 12
Ozone Good
PM2.5 Moderate
Flu Activity Not available.
METAR KSBN 222354Z 27004KT 10SM OVC038 28/23 A2996 RMK AO2 SLP140 T02780228 10294 20272 53004

More Conditions Fewer Conditions

10-Day Weather Forecast

Almanac

Astronomy

Aug. 22, 2014 Rise Set
Actual Time 7:01 AM EDT 8:35 PM EDT
Civil Twilight 6:32 AM EDT 9:04 PM EDT
Nautical Twilight 5:56 AM EDT 9:39 PM EDT
Astronomical Twilight 5:19 AM EDT 10:17 PM EDT
Moon 4:22 AM EDT (8/22) 6:44 PM EDT (8/22)
Length of Visible Light 14h 32m
Length of Day
13h 33m
Tomorrow will be 2m 35s shorter.
Waning Crescent, 6% of the Moon is Illuminated
Today
Waning Crescent
Aug 25
New
Sep 2
First Quarter
Sep 8
Full
Sep 15
Last Quarter

Today's Extremes

State Highs State Lows

Community

WunderPhotos

Upload Photos

1,746,326 photos uploaded!

WunderBlogs® & News

Nearby

Air Quality

  Air Quality AQ Index Pollutant
Yesterday Good
PM2.5
Yesterday Good
OZONE
Current Moderate
PM2.5
Current Good
OZONE
Friday Good
OZONE
Friday Good
PM2.5
Saturday Moderate
PM2.5
Saturday Good
OZONE
Sunday Moderate
PM2.5
Sunday Good
OZONE
Monday Moderate
OZONE
Monday Moderate
PM2.5

Snow Depth

Station Depth Elevation
No new snow has been reported.

Earthquake Activity

City Distance Mag. Time & Date
No recent earthquake activity has been reported nearby.
Minimum magnitude displayed is 2.5.

Coastal Water Temperatures

Place Temperature
Holland, MI 71.1 °F

Nearby Weather Stations